本日のフライト

2008 A
A333
Leg39 EHRD-EKBI 0016z-0111z
Leg40 EKBI-EDDC 0118z-0214z
Leg41 EDDC-EFTP 0223z-0428z
Leg42 EFTP-UWKD 0437z-0647z
Leg43 UWKD-UAKK 0654z-0906z
Leg44 UAKK-UNAA 0914z-1104z
Leg45 UNAA-UMUB 1110z-1253z
Leg46 UMUB-ZHCC 1259z-1500z

leg42
レグ42で出たオーロラ。

UWKD

UWKD 270600Z 18008MPS 5000 SN OVC006 M02/M02 Q0991 TEMPO 2000 FZRA OVC005 RMK QFE734/0979 113/3035

外から見るとそんなでもないけど、コクピットの正面視点では雪の描画だけ家の窓から眺めてるみたいで全然速度感が反映されないので、今回みたいに視界がほとんどない状態では必要以上に怖いの何の・・・

コメントを残す

このサイトはスパムを低減するために Akismet を使っています。コメントデータの処理方法の詳細はこちらをご覧ください